Station History

Weather Underground - logo

Station Historical Data
Daily Summary for August 27, 2017 Units:  English    Metric   Both
« Previous Day
Next Day »
Daily Weekly Monthly Yearly Custom
  High: Low: Average:
Temperature: 104.7 °F 71.7 °F 87.7 °F
Dew Point: 68.9 °F 56.8 °F 63.1 °F
Humidity: 79 % 21 % 49 %
Wind Speed: 5.8 mph 0.0 mph 1 mph
Wind Gust: 5.8 mph - -
Wind:- - West
Pressure: 29.90 in 29.73 in -
Precipitation: 0.00 in    
Historical Graphs
 
 
Tabular Data for August 27, 2017
Time Temperature Dew Point Pressure Wind Wind Speed Wind Gust Humidity Rainfall Rate (Hourly)
00:00 80.6 °F 68.2 °F 29.85 in Calm     66 % 0.00 in
00:05 80.2 °F 67.4 °F 29.85 in Calm     65 % 0.00 in
00:10 79.9 °F 68.4 °F 29.85 in Calm     68 % 0.00 in
00:15 79.7 °F 68.2 °F 29.85 in Calm     68 % 0.00 in
00:20 79.4 °F 67.5 °F 29.85 in Calm     67 % 0.00 in
00:25 79.1 °F 67.6 °F 29.85 in Calm     68 % 0.00 in
00:30 78.9 °F 68.7 °F 29.85 in Calm     71 % 0.00 in
00:35 78.7 °F 67.7 °F 29.85 in Calm     69 % 0.00 in
00:40 78.7 °F 67.7 °F 29.85 in Calm     69 % 0.00 in
00:45 78.7 °F 67.7 °F 29.85 in Calm     69 % 0.00 in
00:50 78.8 °F 68.6 °F 29.85 in Calm     71 % 0.00 in
00:55 78.6 °F 68.0 °F 29.85 in Calm     70 % 0.00 in
01:00 78.4 °F 68.2 °F 29.85 in Calm     71 % 0.00 in
01:05 78.1 °F 67.5 °F 29.85 in Calm     70 % 0.00 in
01:10 78.0 °F 67.4 °F 29.85 in Calm     70 % 0.00 in
01:15 78.0 °F 67.4 °F 29.85 in Calm     70 % 0.00 in
01:20 77.8 °F 67.2 °F 29.85 in Calm     70 % 0.00 in
01:25 77.7 °F 66.3 °F 29.85 in Calm     68 % 0.00 in
01:30 77.8 °F 65.1 °F 29.85 in Calm     65 % 0.00 in
01:35 77.9 °F 64.3 °F 29.85 in Calm     63 % 0.00 in
01:40 77.9 °F 64.3 °F 29.85 in Calm     63 % 0.00 in
01:45 77.5 °F 65.7 °F 29.85 in Calm     67 % 0.00 in
01:50 77.2 °F 65.4 °F 29.85 in Calm     67 % 0.00 in
01:55 76.9 °F 66.0 °F 29.84 in Calm     69 % 0.00 in
02:00 76.7 °F 66.2 °F 29.84 in Calm     70 % 0.00 in
02:05 76.4 °F 66.3 °F 29.84 in Calm     71 % 0.00 in
02:10 76.1 °F 66.0 °F 29.84 in Calm     71 % 0.00 in
02:15 75.8 °F 65.3 °F 29.84 in Calm     70 % 0.00 in
02:20 75.7 °F 65.2 °F 29.84 in Calm     70 % 0.00 in
02:25 75.7 °F 65.2 °F 29.84 in Calm     70 % 0.00 in
02:30 75.7 °F 65.2 °F 29.84 in Calm     70 % 0.00 in
02:35 75.6 °F 65.1 °F 29.84 in Calm     70 % 0.00 in
02:40 75.5 °F 65.0 °F 29.84 in Calm     70 % 0.00 in
02:41 75.5 °F 65.0 °F 29.84 in Calm     70 % 0.00 in
02:46 75.3 °F 64.8 °F 29.84 in Calm     70 % 0.00 in
02:47 75.3 °F 64.8 °F 29.84 in Calm     70 % 0.00 in
02:52 75.4 °F 64.9 °F 29.84 in Calm     70 % 0.00 in
02:57 75.3 °F 65.2 °F 29.84 in Calm     71 % 0.00 in
03:02 75.2 °F 65.1 °F 29.84 in Calm     71 % 0.00 in
03:07 75.1 °F 65.9 °F 29.84 in Calm     73 % 0.00 in
03:12 75.0 °F 66.5 °F 29.84 in Calm     75 % 0.00 in
03:17 74.9 °F 66.4 °F 29.84 in Calm     75 % 0.00 in
03:22 74.7 °F 65.9 °F 29.84 in Calm     74 % 0.00 in
03:27 74.8 °F 64.8 °F 29.84 in Calm     71 % 0.00 in
03:32 74.9 °F 66.8 °F 29.84 in Calm     76 % 0.00 in
03:37 74.7 °F 66.2 °F 29.84 in Calm     75 % 0.00 in
03:42 74.5 °F 66.4 °F 29.84 in Calm     76 % 0.00 in
03:47 74.3 °F 65.9 °F 29.84 in Calm     75 % 0.00 in
03:53 74.0 °F 64.8 °F 29.84 in Calm     73 % 0.00 in
03:58 73.8 °F 65.0 °F 29.84 in Calm     74 % 0.00 in
04:03 73.7 °F 65.3 °F 29.85 in Calm     75 % 0.00 in
04:08 73.4 °F 64.2 °F 29.84 in Calm     73 % 0.00 in
04:13 73.3 °F 64.1 °F 29.84 in Calm     73 % 0.00 in
04:18 73.2 °F 63.2 °F 29.85 in Calm     71 % 0.00 in
04:23 73.3 °F 64.9 °F 29.85 in Calm     75 % 0.00 in
04:28 72.9 °F 64.5 °F 29.85 in Calm     75 % 0.00 in
04:33 72.8 °F 63.2 °F 29.85 in Calm     72 % 0.00 in
04:38 73.0 °F 63.0 °F 29.85 in Calm     71 % 0.00 in
04:43 73.2 °F 62.8 °F 29.85 in Calm     70 % 0.00 in
04:48 73.0 °F 63.8 °F 29.85 in Calm     73 % 0.00 in
04:53 72.8 °F 63.6 °F 29.85 in Calm     73 % 0.00 in
04:58 72.7 °F 63.9 °F 29.85 in Calm     74 % 0.00 in
05:03 72.6 °F 64.2 °F 29.85 in Calm     75 % 0.00 in
05:08 72.5 °F 64.1 °F 29.85 in Calm     75 % 0.00 in
05:13 72.5 °F 64.5 °F 29.85 in Calm     76 % 0.00 in
05:18 72.4 °F 64.0 °F 29.85 in Calm     75 % 0.00 in
05:23 72.4 °F 63.6 °F 29.86 in Calm     74 % 0.00 in
05:28 72.6 °F 63.8 °F 29.86 in Calm     74 % 0.00 in
05:33 72.6 °F 63.4 °F 29.86 in Calm     73 % 0.00 in
05:38 72.5 °F 64.9 °F 29.86 in Calm     77 % 0.00 in
05:43 72.1 °F 64.9 °F 29.86 in Calm     78 % 0.00 in
05:49 71.7 °F 64.8 °F 29.87 in Calm     79 % 0.00 in
05:54 71.8 °F 64.6 °F 29.86 in ESE 1.2 mph   78 % 0.00 in
05:59 72.0 °F 64.4 °F 29.87 in Calm     77 % 0.00 in
06:04 72.1 °F 64.9 °F 29.87 in Calm     78 % 0.00 in
06:09 71.9 °F 64.3 °F 29.88 in Calm     77 % 0.00 in
06:14 71.8 °F 63.8 °F 29.88 in Calm     76 % 0.00 in
06:19 71.7 °F 63.4 °F 29.88 in Calm     75 % 0.00 in
06:24 71.8 °F 63.4 °F 29.88 in Calm     75 % 0.00 in
06:29 71.9 °F 63.2 °F 29.88 in Calm     74 % 0.00 in
06:34 72.0 °F 63.3 °F 29.88 in Calm     74 % 0.00 in
06:39 72.2 °F 62.7 °F 29.88 in Calm     72 % 0.00 in
06:44 72.5 °F 63.0 °F 29.88 in Calm     72 % 0.00 in
06:49 72.7 °F 63.5 °F 29.88 in Calm     73 % 0.00 in
06:54 73.0 °F 64.2 °F 29.88 in ESE 1.2 mph   74 % 0.00 in
06:59 73.3 °F 63.3 °F 29.88 in Calm     71 % 0.00 in
07:04 73.5 °F 63.5 °F 29.88 in Calm     71 % 0.00 in
07:09 73.9 °F 63.5 °F 29.88 in Calm     70 % 0.00 in
07:14 74.4 °F 63.1 °F 29.88 in Calm     68 % 0.00 in
07:19 74.9 °F 62.8 °F 29.89 in Calm     66 % 0.00 in
07:24 75.2 °F 63.1 °F 29.89 in Calm     66 % 0.00 in
07:29 75.6 °F 63.9 °F 29.89 in Calm     67 % 0.00 in
07:34 75.8 °F 64.9 °F 29.89 in Calm     69 % 0.00 in
07:39 76.0 °F 64.7 °F 29.89 in Calm     68 % 0.00 in
07:44 76.2 °F 64.4 °F 29.90 in Calm     67 % 0.00 in
07:50 76.7 °F 64.5 °F 29.90 in Calm     66 % 0.00 in
07:51 76.9 °F 63.8 °F 29.90 in Calm     64 % 0.00 in
07:56 77.9 °F 63.4 °F 29.90 in SE 1.2 mph   61 % 0.00 in
08:01 78.7 °F 64.6 °F 29.89 in Calm     62 % 0.00 in
08:06 79.8 °F 64.7 °F 29.90 in Calm     60 % 0.00 in
08:11 81.3 °F 65.6 °F 29.90 in Calm   0.1 mph 59 % 0.00 in
08:16 82.2 °F 63.9 °F 29.90 in Calm     54 % 0.00 in
08:22 82.9 °F 62.9 °F 29.90 in ESE 1.2 mph 1.2 mph 51 % 0.00 in
08:27 83.6 °F 61.8 °F 29.90 in Calm     48 % 0.00 in
08:32 84.2 °F 64.1 °F 29.90 in Calm     51 % 0.00 in
08:37 84.9 °F 64.8 °F 29.90 in Calm     51 % 0.00 in
08:42 85.5 °F 63.6 °F 29.90 in SSE 1.2 mph 1.2 mph 48 % 0.00 in
08:47 86.0 °F 62.8 °F 29.90 in Calm     46 % 0.00 in
08:52 86.5 °F 63.9 °F 29.90 in Calm   0.1 mph 47 % 0.00 in
08:57 87.1 °F 63.2 °F 29.89 in Calm     45 % 0.00 in
09:02 88.0 °F 63.4 °F 29.90 in Calm     44 % 0.00 in
09:07 89.0 °F 63.6 °F 29.90 in Calm     43 % 0.00 in
09:12 89.5 °F 64.0 °F 29.90 in SSE 1.0 mph 1.0 mph 43 % 0.00 in
09:17 90.2 °F 64.0 °F 29.90 in SE 1.2 mph   42 % 0.00 in
09:22 90.9 °F 63.2 °F 29.89 in Calm     40 % 0.00 in
09:23 90.9 °F 62.5 °F 29.89 in Calm     39 % 0.00 in
09:28 90.6 °F 62.3 °F 29.89 in Calm     39 % 0.00 in
09:33 91.1 °F 61.2 °F 29.90 in SE 1.2 mph 1.2 mph 37 % 0.00 in
09:38 92.3 °F 64.5 °F 29.90 in Calm     40 % 0.00 in
09:43 93.1 °F 63.7 °F 29.90 in Calm     38 % 0.00 in
09:49 93.5 °F 60.9 °F 29.90 in Calm     34 % 0.00 in
09:54 93.6 °F 62.6 °F 29.90 in ESE 1.2 mph 1.2 mph 36 % 0.00 in
09:59 93.0 °F 61.3 °F 29.90 in Calm     35 % 0.00 in
10:04 93.2 °F 59.0 °F 29.90 in West 1.2 mph 1.2 mph 32 % 0.00 in
10:09 93.0 °F 58.8 °F 29.90 in NW 2.3 mph 2.3 mph 32 % 0.00 in
10:14 93.3 °F 59.0 °F 29.89 in NNW 1.2 mph 1.2 mph 32 % 0.00 in
10:19 93.6 °F 60.2 °F 29.89 in NW 1.2 mph 1.2 mph 33 % 0.00 in
10:24 93.4 °F 59.1 °F 29.89 in NW 1.2 mph   32 % 0.00 in
10:29 93.5 °F 57.4 °F 29.89 in NW 2.3 mph 2.3 mph 30 % 0.00 in
10:34 93.5 °F 59.2 °F 29.89 in NW 2.3 mph 2.3 mph 32 % 0.00 in
10:39 93.9 °F 60.4 °F 29.89 in NW 2.3 mph 2.3 mph 33 % 0.00 in
10:44 94.1 °F 60.6 °F 29.88 in NW 1.2 mph   33 % 0.00 in
10:49 94.1 °F 58.8 °F 29.89 in WNW 2.0 mph 2.0 mph 31 % 0.00 in
10:54 94.1 °F 58.8 °F 29.89 in NW 1.2 mph 1.2 mph 31 % 0.00 in
10:56 94.3 °F 59.0 °F 29.88 in NW 1.2 mph 1.2 mph 31 % 0.00 in
11:01 94.8 °F 58.5 °F 29.88 in NW 3.0 mph 3.0 mph 30 % 0.00 in
11:06 94.7 °F 57.5 °F 29.88 in NW 3.5 mph 3.5 mph 29 % 0.00 in
11:11 95.1 °F 56.9 °F 29.88 in NW 2.3 mph 2.3 mph 28 % 0.00 in
11:16 95.7 °F 60.2 °F 29.88 in WNW 2.3 mph 2.3 mph 31 % 0.00 in
11:21 95.9 °F 61.3 °F 29.88 in WNW 2.3 mph 2.3 mph 32 % 0.00 in
11:26 96.1 °F 59.7 °F 29.88 in NW 1.0 mph 1.0 mph 30 % 0.00 in
11:36 96.8 °F 60.3 °F 29.88 in East 2.3 mph 2.3 mph 30 % 0.00 in
11:41 97.5 °F 60.9 °F 29.88 in SW 2.3 mph 2.3 mph 30 % 0.00 in
11:46 97.9 °F 60.2 °F 29.87 in WNW 1.2 mph 1.2 mph 29 % 0.00 in
11:51 98.0 °F 58.3 °F 29.87 in WNW 2.3 mph 2.3 mph 27 % 0.00 in
11:56 97.9 °F 61.2 °F 29.87 in NE 3.5 mph 3.5 mph 30 % 0.00 in
12:01 98.3 °F 62.5 °F 29.87 in ESE 1.2 mph   31 % 0.00 in
12:06 98.9 °F 62.1 °F 29.87 in WSW 3.5 mph 3.5 mph 30 % 0.00 in
12:11 99.1 °F 60.3 °F 29.87 in NW 1.2 mph 1.2 mph 28 % 0.00 in
12:16 99.0 °F 59.2 °F 29.86 in NNW 3.0 mph 3.0 mph 27 % 0.00 in
12:21 98.9 °F 60.1 °F 29.86 in NW 3.5 mph 3.5 mph 28 % 0.00 in
12:26 99.1 °F 59.3 °F 29.86 in North 1.2 mph 1.2 mph 27 % 0.00 in
12:31 99.4 °F 60.5 °F 29.86 in NW 2.0 mph 2.0 mph 28 % 0.00 in
12:37 99.7 °F 59.8 °F 29.86 in West 2.3 mph 2.3 mph 27 % 0.00 in
12:42 99.7 °F 59.8 °F 29.86 in North 2.0 mph 2.0 mph 27 % 0.00 in
12:47 99.9 °F 57.8 °F 29.85 in NW 2.3 mph 2.3 mph 25 % 0.00 in
12:52 99.7 °F 59.8 °F 29.85 in NE 3.5 mph 3.5 mph 27 % 0.00 in
12:57 99.7 °F 58.7 °F 29.85 in Calm     26 % 0.00 in
13:02 100.1 °F 58.0 °F 29.84 in ENE 1.2 mph 1.2 mph 25 % 0.00 in
13:07 100.7 °F 58.5 °F 29.84 in WNW 2.0 mph 2.0 mph 25 % 0.00 in
13:12 100.8 °F 58.5 °F 29.84 in West 2.3 mph 2.3 mph 25 % 0.00 in
13:17 100.6 °F 57.2 °F 29.84 in ESE 1.2 mph 1.2 mph 24 % 0.00 in
13:22 101.3 °F 62.2 °F 29.84 in SE 1.2 mph 1.2 mph 28 % 0.00 in
13:27 102.4 °F 62.1 °F 29.84 in NW 3.5 mph 3.5 mph 27 % 0.00 in
13:32 102.3 °F 59.8 °F 29.84 in NW 2.3 mph 2.3 mph 25 % 0.00 in
13:37 102.4 °F 58.7 °F 29.83 in NNW 2.3 mph 2.3 mph 24 % 0.00 in
13:42 102.4 °F 58.7 °F 29.83 in NNW 3.5 mph 3.5 mph 24 % 0.00 in
13:47 102.1 °F 58.5 °F 29.83 in NW 3.5 mph 3.5 mph 24 % 0.00 in
13:52 102.1 °F 58.5 °F 29.83 in NW 2.3 mph 2.3 mph 24 % 0.00 in
13:57 102.5 °F 61.1 °F 29.83 in NW 3.5 mph 3.5 mph 26 % 0.00 in
14:02 102.5 °F 61.1 °F 29.82 in NNW 3.5 mph 3.5 mph 26 % 0.00 in
14:07 102.5 °F 61.1 °F 29.82 in NW 3.0 mph 3.0 mph 26 % 0.00 in
14:12 102.1 °F 61.8 °F 29.81 in WNW 3.5 mph 3.5 mph 27 % 0.00 in
14:17 102.1 °F 60.7 °F 29.81 in NW 3.5 mph 3.5 mph 26 % 0.00 in
14:22 102.0 °F 61.7 °F 29.81 in NW 2.3 mph 2.3 mph 27 % 0.00 in
14:27 101.8 °F 60.5 °F 29.81 in NW 3.5 mph 3.5 mph 26 % 0.00 in
14:32 101.8 °F 60.5 °F 29.80 in West 3.5 mph 3.5 mph 26 % 0.00 in
14:37 102.2 °F 61.9 °F 29.80 in WNW 3.5 mph 3.5 mph 27 % 0.00 in
14:42 102.6 °F 62.2 °F 29.79 in NW 3.5 mph 3.5 mph 27 % 0.00 in
14:52 103.3 °F 61.7 °F 29.79 in NW 3.5 mph 3.5 mph 26 % 0.00 in
14:57 103.1 °F 61.6 °F 29.78 in West 2.3 mph 2.3 mph 26 % 0.00 in
15:02 103.3 °F 61.7 °F 29.78 in West 3.5 mph 3.5 mph 26 % 0.00 in
15:07 103.1 °F 62.7 °F 29.78 in NNW 3.5 mph 3.5 mph 27 % 0.00 in
15:12 103.4 °F 63.9 °F 29.78 in NW 2.3 mph 2.3 mph 28 % 0.00 in
15:17 103.4 °F 62.9 °F 29.78 in NNW 3.5 mph 3.5 mph 27 % 0.00 in
15:22 103.6 °F 64.1 °F 29.78 in WNW 3.5 mph 3.5 mph 28 % 0.00 in
15:27 103.5 °F 61.9 °F 29.77 in NW 5.8 mph 5.8 mph 26 % 0.00 in
15:32 103.6 °F 63.1 °F 29.77 in NW 3.0 mph 3.0 mph 27 % 0.00 in
15:37 103.3 °F 60.6 °F 29.77 in NW 3.5 mph 3.5 mph 25 % 0.00 in
15:42 103.6 °F 60.9 °F 29.77 in North 4.6 mph 4.6 mph 25 % 0.00 in
15:47 103.4 °F 62.9 °F 29.77 in NE 3.5 mph 3.5 mph 27 % 0.00 in
15:52 103.6 °F 63.1 °F 29.77 in NW 5.8 mph 5.8 mph 27 % 0.00 in
15:57 103.8 °F 61.1 °F 29.76 in WNW 3.5 mph 3.5 mph 25 % 0.00 in
16:02 104.1 °F 61.3 °F 29.76 in NW 3.5 mph 3.5 mph 25 % 0.00 in
16:07 104.0 °F 60.1 °F 29.76 in WNW 3.5 mph 3.5 mph 24 % 0.00 in
16:12 104.0 °F 61.2 °F 29.75 in NNW 4.6 mph 4.6 mph 25 % 0.00 in
16:17 104.3 °F 61.5 °F 29.75 in NNW 3.5 mph 3.5 mph 25 % 0.00 in
16:22 104.3 °F 60.3 °F 29.75 in NNW 3.5 mph 3.5 mph 24 % 0.00 in
16:27 104.5 °F 60.5 °F 29.75 in West 3.5 mph 3.5 mph 24 % 0.00 in
16:32 104.7 °F 59.5 °F 29.75 in NNW 3.5 mph 3.5 mph 23 % 0.00 in
16:37 104.6 °F 58.1 °F 29.75 in NW 3.5 mph 3.5 mph 22 % 0.00 in
16:42 104.5 °F 56.8 °F 29.74 in NW 3.5 mph 3.5 mph 21 % 0.00 in
16:47 104.5 °F 56.8 °F 29.74 in NNW 3.5 mph 3.5 mph 21 % 0.00 in
16:52 104.5 °F 58.1 °F 29.74 in NE 3.5 mph 3.5 mph 22 % 0.00 in
16:57 104.4 °F 58.0 °F 29.74 in NW 3.5 mph 3.5 mph 22 % 0.00 in
17:02 104.4 °F 58.0 °F 29.75 in NW 3.5 mph 3.5 mph 22 % 0.00 in
17:03 104.4 °F 58.0 °F 29.75 in NW 3.5 mph 3.5 mph 22 % 0.00 in
17:08 104.6 °F 58.1 °F 29.75 in WNW 2.3 mph 2.3 mph 22 % 0.00 in
17:13 104.5 °F 56.8 °F 29.74 in NW 3.5 mph 3.5 mph 21 % 0.00 in
17:18 104.5 °F 58.1 °F 29.74 in NW 2.3 mph 2.3 mph 22 % 0.00 in
17:23 104.5 °F 56.8 °F 29.74 in NW 3.5 mph 3.5 mph 21 % 0.00 in
17:28 104.6 °F 58.1 °F 29.74 in North 2.3 mph 2.3 mph 22 % 0.00 in
17:33 104.6 °F 58.1 °F 29.74 in WNW 3.5 mph 3.5 mph 22 % 0.00 in
17:38 104.7 °F 58.2 °F 29.74 in WSW 3.5 mph 3.5 mph 22 % 0.00 in
17:43 104.4 °F 58.0 °F 29.74 in NW 2.3 mph 2.3 mph 22 % 0.00 in
17:48 104.0 °F 60.1 °F 29.74 in WNW 2.3 mph 2.3 mph 24 % 0.00 in
17:53 103.8 °F 58.7 °F 29.74 in NW 2.3 mph 2.3 mph 23 % 0.00 in
17:58 103.8 °F 58.7 °F 29.74 in NW 2.3 mph 2.3 mph 23 % 0.00 in
18:04 103.9 °F 60.0 °F 29.74 in West 1.2 mph 1.2 mph 24 % 0.00 in
18:05 103.9 °F 58.8 °F 29.74 in NNW 1.2 mph 1.2 mph 23 % 0.00 in
18:10 103.9 °F 58.8 °F 29.73 in NW 2.3 mph 2.3 mph 23 % 0.00 in
18:15 103.7 °F 58.6 °F 29.73 in WNW 1.2 mph 1.2 mph 23 % 0.00 in
18:20 103.8 °F 59.9 °F 29.73 in WNW 1.2 mph   24 % 0.00 in
18:25 102.9 °F 59.2 °F 29.73 in WNW 1.2 mph 1.2 mph 24 % 0.00 in
18:30 101.8 °F 60.5 °F 29.73 in Calm     26 % 0.00 in
18:35 100.9 °F 60.8 °F 29.73 in WNW 1.2 mph   27 % 0.00 in
18:40 100.1 °F 61.1 °F 29.74 in NNW 1.2 mph 1.2 mph 28 % 0.00 in
18:45 99.6 °F 60.7 °F 29.74 in NW 1.2 mph 1.2 mph 28 % 0.00 in
18:50 99.0 °F 61.2 °F 29.74 in Calm     29 % 0.00 in
18:55 98.7 °F 60.9 °F 29.74 in NW 1.2 mph 1.2 mph 29 % 0.00 in
19:00 98.3 °F 61.5 °F 29.74 in NW 1.2 mph 1.2 mph 30 % 0.00 in
19:05 97.8 °F 62.0 °F 29.74 in Calm     31 % 0.00 in
19:10 97.1 °F 62.3 °F 29.74 in Calm     32 % 0.00 in
19:15 96.4 °F 61.7 °F 29.74 in NW 1.2 mph 1.2 mph 32 % 0.00 in
19:20 96.0 °F 63.1 °F 29.74 in NW 1.2 mph 1.2 mph 34 % 0.00 in
19:25 95.4 °F 62.6 °F 29.74 in Calm     34 % 0.00 in
19:30 94.9 °F 63.8 °F 29.74 in Calm     36 % 0.00 in
19:35 94.3 °F 62.4 °F 29.74 in NW 1.2 mph 1.2 mph 35 % 0.00 in
19:40 94.1 °F 62.3 °F 29.74 in NW 1.2 mph 1.2 mph 35 % 0.00 in
19:45 93.7 °F 62.7 °F 29.75 in Calm     36 % 0.00 in
19:50 93.0 °F 62.1 °F 29.75 in Calm     36 % 0.00 in
19:55 92.4 °F 63.1 °F 29.75 in Calm     38 % 0.00 in
20:00 91.9 °F 63.4 °F 29.75 in NW 1.2 mph   39 % 0.00 in
20:05 91.6 °F 63.9 °F 29.75 in Calm     40 % 0.00 in
20:10 91.2 °F 64.2 °F 29.75 in Calm     41 % 0.00 in
20:15 90.3 °F 64.8 °F 29.75 in Calm     43 % 0.00 in
20:20 89.4 °F 64.6 °F 29.75 in Calm     44 % 0.00 in
20:25 88.5 °F 65.1 °F 29.76 in Calm     46 % 0.00 in
20:30 87.5 °F 65.4 °F 29.76 in Calm     48 % 0.00 in
20:35 86.7 °F 65.3 °F 29.76 in Calm     49 % 0.00 in
20:40 86.2 °F 64.8 °F 29.76 in Calm     49 % 0.00 in
20:45 86.0 °F 65.2 °F 29.76 in Calm     50 % 0.00 in
20:51 85.7 °F 65.5 °F 29.76 in Calm     51 % 0.00 in
20:56 85.6 °F 66.0 °F 29.77 in Calm   0.1 mph 52 % 0.00 in
21:01 85.5 °F 66.4 °F 29.77 in Calm     53 % 0.00 in
21:06 84.9 °F 67.5 °F 29.77 in Calm     56 % 0.00 in
21:11 83.7 °F 67.8 °F 29.77 in Calm     59 % 0.00 in
21:16 82.9 °F 67.6 °F 29.78 in Calm     60 % 0.00 in
21:21 82.7 °F 67.4 °F 29.78 in Calm     60 % 0.00 in
21:26 82.7 °F 66.9 °F 29.78 in Calm     59 % 0.00 in
21:31 82.7 °F 67.4 °F 29.78 in Calm     60 % 0.00 in
21:36 82.3 °F 67.0 °F 29.78 in Calm     60 % 0.00 in
21:41 82.1 °F 67.3 °F 29.78 in Calm     61 % 0.00 in
21:46 81.9 °F 67.1 °F 29.78 in Calm     61 % 0.00 in
21:51 81.7 °F 67.4 °F 29.79 in Calm     62 % 0.00 in
21:56 81.6 °F 68.2 °F 29.79 in Calm     64 % 0.00 in
22:01 81.5 °F 68.1 °F 29.79 in Calm     64 % 0.00 in
22:06 81.4 °F 68.9 °F 29.79 in Calm     66 % 0.00 in
22:11 81.2 °F 67.4 °F 29.79 in Calm     63 % 0.00 in
22:16 81.1 °F 67.8 °F 29.79 in Calm     64 % 0.00 in
22:21 81.0 °F 68.1 °F 29.79 in Calm     65 % 0.00 in
22:26 81.0 °F 67.7 °F 29.79 in Calm     64 % 0.00 in
22:31 81.0 °F 68.1 °F 29.78 in Calm     65 % 0.00 in
22:36 80.8 °F 68.4 °F 29.78 in Calm     66 % 0.00 in
22:41 80.5 °F 67.6 °F 29.78 in Calm     65 % 0.00 in
22:46 81.0 °F 66.8 °F 29.78 in Calm     62 % 0.00 in
22:51 81.1 °F 66.8 °F 29.78 in Calm     62 % 0.00 in
22:52 81.0 °F 66.3 °F 29.78 in Calm     61 % 0.00 in
22:57 81.0 °F 66.3 °F 29.78 in Calm     61 % 0.00 in
23:02 80.2 °F 66.5 °F 29.78 in Calm     63 % 0.00 in
23:07 79.6 °F 66.8 °F 29.78 in Calm     65 % 0.00 in
23:12 79.3 °F 66.1 °F 29.78 in Calm     64 % 0.00 in
23:17 79.2 °F 65.5 °F 29.78 in Calm     63 % 0.00 in
23:22 79.1 °F 65.4 °F 29.78 in Calm     63 % 0.00 in
23:27 78.8 °F 66.5 °F 29.78 in Calm     66 % 0.00 in
23:32 78.3 °F 66.0 °F 29.78 in Calm     66 % 0.00 in
23:37 77.8 °F 66.0 °F 29.78 in Calm     67 % 0.00 in
23:42 77.4 °F 66.0 °F 29.78 in Calm     68 % 0.00 in
23:47 77.0 °F 65.2 °F 29.78 in Calm     67 % 0.00 in
23:52 77.0 °F 63.9 °F 29.78 in Calm     64 % 0.00 in
23:57 76.9 °F 63.8 °F 29.78 in Calm     64 % 0.00 in
Park Place, Exeter, Tulare County, California, USA
Compliments of Weather Underground - 2.75 mb